Time;durP1;ratioP1;P1;durP2;ratioP2;P2;SDS_P1;SDS_P2;PMS_P1;PMS_P2;Temp;Humidity;BMP_temperature;BMP_pressure;BME280_temperature;BME280_humidity;BME280_pressure;Samples;Min_cycle;Max_cycle;Signal;HPM_P1;HPM_P2
2021/05/15 00:01:58;;;;;;;3.55;1.70;;;12.10;99.90;;;;;;5075557;28;20424;-81
2021/05/15 00:04:24;;;;;;;3.25;1.48;;;12.10;99.90;;;;;;5057196;28;20024;-85
2021/05/15 00:06:50;;;;;;;1.90;1.38;;;12.10;99.90;;;;;;5074695;28;20038;-77
2021/05/15 00:09:16;;;;;;;3.35;1.20;;;12.00;99.90;;;;;;5057102;28;20024;-81
2021/05/15 00:11:42;;;;;;;3.90;1.50;;;12.00;99.90;;;;;;5056778;28;20787;-85
2021/05/15 00:14:08;;;;;;;1.60;1.15;;;11.90;99.90;;;;;;5056848;28;20087;-78
2021/05/15 00:16:34;;;;;;;1.65;0.80;;;11.80;99.90;;;;;;5056921;28;20657;-86
2021/05/15 00:19:00;;;;;;;3.63;0.77;;;11.80;99.90;;;;;;5057095;28;20071;-80
2021/05/15 00:21:26;;;;;;;4.50;1.00;;;11.70;99.90;;;;;;5075522;28;20041;-86
2021/05/15 00:23:51;;;;;;;1.70;0.77;;;11.60;99.90;;;;;;5056775;28;20119;-86
2021/05/15 00:26:18;;;;;;;1.85;0.65;;;11.60;99.90;;;;;;5074879;28;20034;-80
2021/05/15 00:28:43;;;;;;;1.00;0.50;;;11.60;99.90;;;;;;5056390;28;20035;-79
2021/05/15 00:31:09;;;;;;;0.60;0.30;;;11.50;99.90;;;;;;5056970;28;20021;-80
2021/05/15 00:33:35;;;;;;;1.45;0.50;;;11.40;99.90;;;;;;5056527;28;20056;-79
2021/05/15 00:36:01;;;;;;;2.05;0.73;;;11.40;99.90;;;;;;5056282;28;20106;-80
2021/05/15 00:38:26;;;;;;;2.92;0.40;;;11.30;99.90;;;;;;5056207;28;20032;-77
2021/05/15 00:40:52;;;;;;;4.15;0.50;;;11.30;99.90;;;;;;5056893;28;20028;-80
2021/05/15 00:43:18;;;;;;;1.10;0.50;;;11.30;99.90;;;;;;5056955;28;20027;-79
2021/05/15 00:45:45;;;;;;;2.08;0.57;;;11.20;99.90;;;;;;5056581;28;20021;-84
2021/05/15 00:48:11;;;;;;;1.20;0.65;;;11.10;99.90;;;;;;5056870;28;20024;-81
2021/05/15 00:50:37;;;;;;;2.40;0.70;;;11.10;99.90;;;;;;5056692;28;20028;-84
2021/05/15 00:53:04;;;;;;;0.85;0.65;;;11.10;99.90;;;;;;5074857;28;20442;-80
2021/05/15 00:55:31;;;;;;;1.20;0.50;;;11.10;99.90;;;;;;5074442;28;20050;-79
2021/05/15 00:57:58;;;;;;;3.05;0.68;;;11.10;99.90;;;;;;5055511;28;20102;-86
2021/05/15 01:00:24;;;;;;;3.95;0.70;;;11.00;99.90;;;;;;5073400;28;20025;-81
2021/05/15 01:02:50;;;;;;;2.63;0.73;;;11.10;99.90;;;;;;5073463;28;20107;-80
2021/05/15 01:05:16;;;;;;;1.75;0.68;;;11.20;99.90;;;;;;5056042;28;20111;-80
2021/05/15 01:07:45;;;;;;;1.80;0.70;;;11.20;99.90;;;;;;5073182;28;20027;-78
2021/05/15 01:10:12;;;;;;;1.80;0.60;;;11.20;99.90;;;;;;5073216;28;20028;-81
2021/05/15 01:12:53;;;;;;;1.27;0.60;;;11.20;99.90;;;;;;5074315;28;20498;-81
2021/05/15 01:15:20;;;;;;;1.42;0.68;;;11.20;99.90;;;;;;5055859;28;20032;-78
2021/05/15 01:17:50;;;;;;;1.05;0.52;;;11.20;99.90;;;;;;5055343;28;20131;-80
2021/05/15 01:20:16;;;;;;;1.05;0.65;;;11.20;99.90;;;;;;5055226;28;20127;-82
2021/05/15 01:22:42;;;;;;;1.25;0.50;;;11.20;99.90;;;;;;5055396;28;20056;-87
2021/05/15 01:25:09;;;;;;;1.48;0.70;;;11.30;99.90;;;;;;5073442;28;20440;-79
2021/05/15 01:27:34;;;;;;;0.82;0.55;;;11.30;99.90;;;;;;5073244;28;20073;-78
2021/05/15 01:30:00;;;;;;;1.10;0.63;;;11.40;99.90;;;;;;5055228;28;20107;-81
2021/05/15 01:32:26;;;;;;;1.98;0.50;;;11.40;99.90;;;;;;5055166;28;20033;-77
2021/05/15 01:34:51;;;;;;;2.90;0.80;;;11.40;99.90;;;;;;5073232;28;20460;-79
2021/05/15 01:37:17;;;;;;;1.30;0.70;;;11.50;99.90;;;;;;5073018;28;20036;-79
2021/05/15 01:39:42;;;;;;;4.45;1.23;;;11.50;99.90;;;;;;5055443;28;20050;-86
2021/05/15 01:42:08;;;;;;;1.45;0.85;;;11.40;99.90;;;;;;5055504;28;20097;-83
2021/05/15 01:44:34;;;;;;;1.00;0.80;;;11.50;99.90;;;;;;5055359;28;20107;-86
2021/05/15 01:46:59;;;;;;;1.98;0.70;;;11.50;99.90;;;;;;5055338;28;20151;-78
2021/05/15 01:49:25;;;;;;;2.28;0.95;;;11.40;99.90;;;;;;5073527;28;20046;-86
2021/05/15 01:51:51;;;;;;;3.72;1.00;;;11.50;99.90;;;;;;5073097;28;20549;-79
2021/05/15 01:54:16;;;;;;;3.03;0.90;;;11.50;99.90;;;;;;5073232;28;20036;-80
2021/05/15 01:56:42;;;;;;;1.60;1.00;;;11.50;99.90;;;;;;5055476;28;20476;-79
2021/05/15 01:59:08;;;;;;;1.20;0.80;;;11.50;99.90;;;;;;5073161;28;20037;-82
2021/05/15 02:01:37;;;;;;;1.42;1.00;;;11.40;99.90;;;;;;5073555;28;20056;-79
2021/05/15 02:04:03;;;;;;;1.60;0.90;;;11.40;99.90;;;;;;5073019;28;20036;-77
2021/05/15 02:06:29;;;;;;;1.30;0.98;;;11.40;99.90;;;;;;5073029;28;20078;-77
2021/05/15 02:08:55;;;;;;;2.85;0.93;;;11.40;99.90;;;;;;5054699;28;20024;-79
2021/05/15 02:11:20;;;;;;;2.88;1.23;;;11.40;99.90;;;;;;5054453;28;20152;-79
2021/05/15 02:13:48;;;;;;;1.25;0.82;;;11.50;99.90;;;;;;5055391;28;20040;-85
2021/05/15 02:16:14;;;;;;;2.97;0.70;;;11.40;99.90;;;;;;5073004;28;20570;-80
2021/05/15 02:18:39;;;;;;;2.45;1.20;;;11.40;99.90;;;;;;5072216;28;20036;-80
2021/05/15 02:21:06;;;;;;;1.40;0.90;;;11.40;99.90;;;;;;5073070;28;20086;-85
2021/05/15 02:23:32;;;;;;;2.05;0.70;;;11.50;99.90;;;;;;5072806;28;20341;-80
2021/05/15 02:25:58;;;;;;;2.45;0.68;;;11.50;99.90;;;;;;5055137;28;20017;-85
2021/05/15 02:28:24;;;;;;;4.72;0.93;;;11.60;99.90;;;;;;5073141;28;20024;-85
2021/05/15 02:30:50;;;;;;;1.27;0.65;;;11.60;99.90;;;;;;5054793;28;20027;-78
2021/05/15 02:33:16;;;;;;;1.27;0.70;;;11.60;99.90;;;;;;5055040;28;20027;-83
2021/05/15 02:35:42;;;;;;;2.20;0.70;;;11.50;99.90;;;;;;5072893;28;20030;-86
2021/05/15 02:38:10;;;;;;;1.13;0.95;;;11.50;99.90;;;;;;5072001;28;20060;-81
2021/05/15 02:40:39;;;;;;;1.38;0.77;;;11.50;99.90;;;;;;5054949;28;20035;-86
2021/05/15 02:43:05;;;;;;;1.42;0.73;;;11.50;99.90;;;;;;5072801;28;20032;-79
2021/05/15 02:45:32;;;;;;;1.42;1.10;;;11.60;99.90;;;;;;5072338;28;20044;-79
2021/05/15 02:47:57;;;;;;;1.52;0.80;;;11.50;99.90;;;;;;5054384;28;20028;-81
2021/05/15 02:50:24;;;;;;;1.50;0.70;;;11.50;99.90;;;;;;5072854;28;20486;-79
2021/05/15 02:52:51;;;;;;;1.58;0.70;;;11.50;99.90;;;;;;5054560;28;20028;-80
2021/05/15 02:55:21;;;;;;;1.02;0.70;;;11.50;99.90;;;;;;5054721;28;20089;-81
2021/05/15 02:57:47;;;;;;;1.35;0.77;;;11.50;99.90;;;;;;5057575;28;20544;-79
2021/05/15 03:00:16;;;;;;;2.55;0.80;;;11.50;99.90;;;;;;5058299;28;20105;-80
2021/05/15 03:02:42;;;;;;;1.30;0.80;;;11.50;99.90;;;;;;5076050;28;20499;-78
2021/05/15 03:05:11;;;;;;;1.70;1.13;;;11.50;99.90;;;;;;5058676;28;20021;-79
2021/05/15 03:07:36;;;;;;;1.80;1.30;;;11.40;99.90;;;;;;5057721;28;20028;-79
2021/05/15 03:10:04;;;;;;;10.43;6.68;;;11.40;99.90;;;;;;5058178;28;20491;-82
2021/05/15 03:12:30;;;;;;;9.20;5.40;;;11.40;99.90;;;;;;5058067;28;20054;-85
2021/05/15 03:14:56;;;;;;;3.03;1.90;;;11.40;99.90;;;;;;5057934;28;20052;-79
2021/05/15 03:17:22;;;;;;;1.50;1.20;;;11.50;99.90;;;;;;5058089;28;20046;-84
2021/05/15 03:19:48;;;;;;;3.38;1.25;;;11.50;99.90;;;;;;5057477;28;20046;-78
2021/05/15 03:22:14;;;;;;;3.20;1.40;;;11.50;99.90;;;;;;5075716;28;20031;-79
2021/05/15 03:24:39;;;;;;;1.85;1.10;;;11.50;99.90;;;;;;5057660;28;20117;-79
2021/05/15 03:27:05;;;;;;;1.23;1.00;;;11.50;99.90;;;;;;5057711;28;20055;-81
2021/05/15 03:29:31;;;;;;;3.78;1.17;;;11.40;99.90;;;;;;5058042;28;20443;-79
2021/05/15 03:31:57;;;;;;;2.28;0.80;;;11.50;99.90;;;;;;5075453;28;20016;-80
2021/05/15 03:34:23;;;;;;;1.30;0.90;;;11.50;99.90;;;;;;5057699;28;20037;-80
2021/05/15 03:36:48;;;;;;;1.48;0.70;;;11.50;99.90;;;;;;5057453;28;20031;-78
2021/05/15 03:39:18;;;;;;;3.03;0.60;;;11.50;99.90;;;;;;5075238;28;20040;-81
2021/05/15 03:41:47;;;;;;;1.15;0.80;;;11.50;99.90;;;;;;5057783;28;20428;-83
2021/05/15 03:44:13;;;;;;;1.67;0.70;;;11.40;99.90;;;;;;5057573;28;20085;-78
2021/05/15 03:46:39;;;;;;;1.52;0.90;;;11.40;99.90;;;;;;5057963;28;20364;-83
2021/05/15 03:49:05;;;;;;;1.08;0.52;;;11.40;99.90;;;;;;5075454;28;20016;-87
2021/05/15 03:51:31;;;;;;;1.58;0.80;;;11.40;99.90;;;;;;5057854;28;20424;-79
2021/05/15 03:53:57;;;;;;;3.67;3.00;;;11.40;99.90;;;;;;5057260;28;20031;-86
2021/05/15 03:56:23;;;;;;;3.85;3.17;;;11.50;99.90;;;;;;5074955;28;20012;-79
2021/05/15 03:58:49;;;;;;;1.42;1.00;;;11.50;99.90;;;;;;5056723;28;20147;-86
2021/05/15 04:01:15;;;;;;;1.27;0.75;;;11.60;99.90;;;;;;5056600;28;20024;-78
2021/05/15 04:03:40;;;;;;;4.10;2.72;;;11.60;99.90;;;;;;5071120;28;20024;-79
2021/05/15 04:06:06;;;;;;;3.13;2.85;;;11.60;99.90;;;;;;5037178;28;20031;-80
2021/05/15 04:08:32;;;;;;;2.35;1.40;;;11.70;99.90;;;;;;5036468;28;20460;-79
2021/05/15 04:10:57;;;;;;;8.80;5.07;;;11.70;99.90;;;;;;5054882;28;20078;-84
2021/05/15 04:16:01;;;;;;;1.50;1.13;;;11.80;99.90;;;;;;5054737;28;20028;-86
2021/05/15 04:18:30;;;;;;;2.97;1.25;;;11.80;99.90;;;;;;5036313;28;20118;-79
2021/05/15 04:20:57;;;;;;;4.25;1.27;;;11.80;99.90;;;;;;5036324;28;20045;-79
2021/05/15 04:23:23;;;;;;;2.33;1.00;;;11.90;99.90;;;;;;5054554;28;20028;-85
2021/05/15 04:25:49;;;;;;;8.48;4.80;;;11.90;99.90;;;;;;5036286;28;20013;-86
2021/05/15 04:28:15;;;;;;;2.38;1.73;;;11.90;99.90;;;;;;5054575;28;20025;-85
2021/05/15 04:30:42;;;;;;;1.65;1.50;;;11.90;99.90;;;;;;5054045;28;20670;-85
2021/05/15 04:33:07;;;;;;;3.15;0.98;;;12.00;99.90;;;;;;5036456;28;20021;-81
2021/05/15 04:35:33;;;;;;;3.40;1.70;;;12.00;99.90;;;;;;5054536;28;20028;-85
2021/05/15 04:38:04;;;;;;;2.90;1.10;;;12.10;99.90;;;;;;5054129;28;20029;-77
2021/05/15 04:40:31;;;;;;;3.15;1.20;;;12.10;99.90;;;;;;5054372;28;20139;-85
2021/05/15 04:42:57;;;;;;;2.20;1.40;;;12.20;99.90;;;;;;5036753;28;20571;-78
2021/05/15 04:45:23;;;;;;;4.38;2.78;;;12.20;99.90;;;;;;5054147;28;20031;-78
2021/05/15 04:47:49;;;;;;;7.25;2.17;;;12.20;99.90;;;;;;5036298;28;20070;-80
2021/05/15 04:50:15;;;;;;;2.63;2.03;;;12.30;99.90;;;;;;5053876;28;20532;-80
2021/05/15 04:52:41;;;;;;;4.75;1.58;;;12.30;99.90;;;;;;5054760;28;20017;-87
2021/05/15 04:55:07;;;;;;;3.85;2.05;;;12.40;99.90;;;;;;5036466;28;20033;-85
2021/05/15 04:57:33;;;;;;;4.95;2.50;;;12.50;99.90;;;;;;5053920;28;20033;-81
2021/05/15 04:59:59;;;;;;;5.22;1.48;;;12.50;99.90;;;;;;5035529;28;20094;-85
2021/05/15 05:02:25;;;;;;;1.85;0.93;;;12.70;99.90;;;;;;5035900;28;20016;-80
2021/05/15 05:04:50;;;;;;;2.38;1.45;;;12.80;99.90;;;;;;5036546;28;20111;-78
2021/05/15 05:07:16;;;;;;;1.52;0.90;;;12.80;99.90;;;;;;5036014;28;20029;-80
2021/05/15 05:09:42;;;;;;;3.55;1.20;;;12.80;99.90;;;;;;5053774;28;20025;-78
2021/05/15 05:12:10;;;;;;;4.82;1.70;;;12.90;99.90;;;;;;5035998;28;20052;-79
2021/05/15 05:14:38;;;;;;;2.75;1.10;;;13.00;99.90;;;;;;5035997;28;20530;-79
2021/05/15 05:17:04;;;;;;;1.75;1.48;;;13.20;99.90;;;;;;5036031;28;20056;-79
2021/05/15 05:19:30;;;;;;;3.10;0.85;;;13.30;99.90;;;;;;5034958;28;20542;-78
2021/05/15 05:21:56;;;;;;;1.05;0.80;;;13.30;99.90;;;;;;5054386;28;20124;-83
2021/05/15 05:24:22;;;;;;;2.05;1.05;;;14.20;99.90;;;;;;5057145;28;20033;-85
2021/05/15 05:26:48;;;;;;;4.75;2.17;;;14.70;99.90;;;;;;5038912;28;20018;-84
2021/05/15 05:29:13;;;;;;;3.20;1.42;;;15.30;99.90;;;;;;5035958;28;20032;-84
2021/05/15 05:31:44;;;;;;;3.55;1.10;;;15.50;99.90;;;;;;5035808;28;20025;-78
2021/05/15 05:34:10;;;;;;;2.75;1.60;;;15.60;99.90;;;;;;5053432;28;20024;-80
2021/05/15 05:36:37;;;;;;;4.07;0.93;;;15.60;99.90;;;;;;5053290;28;20048;-79
2021/05/15 05:39:10;;;;;;;1.67;0.77;;;15.50;99.90;;;;;;5035587;28;20036;-78
2021/05/15 05:41:37;;;;;;;3.25;1.00;;;15.20;99.90;;;;;;5053312;28;20021;-77
2021/05/15 05:44:06;;;;;;;1.52;0.90;;;15.40;99.90;;;;;;5053242;28;20457;-77
2021/05/15 05:46:32;;;;;;;0.98;0.55;;;15.30;99.90;;;;;;5035663;28;20028;-82
2021/05/15 05:48:58;;;;;;;2.65;0.70;;;15.40;99.90;;;;;;5035577;28;20108;-79
2021/05/15 05:51:24;;;;;;;2.92;0.90;;;15.20;99.90;;;;;;5035822;28;20053;-82
2021/05/15 05:53:50;;;;;;;3.08;1.08;;;15.10;99.90;;;;;;5053546;28;20120;-77
2021/05/15 05:56:17;;;;;;;2.75;1.00;;;15.10;99.90;;;;;;5035546;28;20017;-82
2021/05/15 05:58:45;;;;;;;1.13;0.75;;;14.90;99.90;;;;;;5053160;28;20033;-83
2021/05/15 06:01:14;;;;;;;1.23;0.70;;;14.90;99.90;;;;;;5035526;28;20472;-82
2021/05/15 06:03:40;;;;;;;1.05;0.70;;;14.90;99.90;;;;;;5053092;28;20029;-77
2021/05/15 06:06:07;;;;;;;1.20;0.82;;;15.00;99.90;;;;;;5035369;28;20025;-83
2021/05/15 06:08:33;;;;;;;0.90;0.68;;;15.30;99.90;;;;;;5053178;28;20036;-84
2021/05/15 06:10:59;;;;;;;2.83;1.10;;;15.10;99.90;;;;;;5053498;28;20029;-78
2021/05/15 06:13:25;;;;;;;1.10;0.80;;;14.90;99.90;;;;;;5035084;28;20032;-80
2021/05/15 06:15:51;;;;;;;1.23;0.77;;;14.80;99.90;;;;;;5035185;28;20108;-84
2021/05/15 06:18:17;;;;;;;1.33;0.70;;;14.60;99.90;;;;;;5034830;28;20075;-79
2021/05/15 06:20:43;;;;;;;3.58;0.90;;;14.50;99.90;;;;;;5034371;28;20061;-77
2021/05/15 06:23:09;;;;;;;1.80;0.70;;;14.30;99.90;;;;;;5034486;28;20083;-81
2021/05/15 06:25:35;;;;;;;4.57;2.47;;;14.50;99.90;;;;;;5034492;28;20041;-79
2021/05/15 06:28:00;;;;;;;7.07;1.27;;;14.50;99.90;;;;;;5034247;28;20057;-78
2021/05/15 06:30:26;;;;;;;1.90;1.05;;;14.40;99.90;;;;;;5036126;28;20358;-78
2021/05/15 06:32:52;;;;;;;2.58;1.13;;;14.40;99.90;;;;;;5038612;28;20024;-78
2021/05/15 06:35:18;;;;;;;1.20;0.90;;;14.40;99.90;;;;;;5038358;28;20116;-78
2021/05/15 06:37:43;;;;;;;0.95;0.77;;;14.40;99.90;;;;;;5056361;28;20431;-81
2021/05/15 06:40:09;;;;;;;2.70;0.90;;;14.60;99.90;;;;;;5038258;28;20025;-84
2021/05/15 06:42:35;;;;;;;1.73;0.93;;;14.60;99.90;;;;;;5038422;28;20029;-78
2021/05/15 06:45:02;;;;;;;1.38;0.90;;;14.70;99.90;;;;;;5038546;28;20013;-78
2021/05/15 06:47:28;;;;;;;4.35;1.80;;;14.80;99.90;;;;;;5038578;28;20079;-78
2021/05/15 06:49:53;;;;;;;2.72;1.58;;;14.90;99.90;;;;;;5037926;28;20594;-86
2021/05/15 06:52:19;;;;;;;3.05;1.83;;;14.80;99.90;;;;;;5055932;28;20104;-78
2021/05/15 06:54:45;;;;;;;2.47;0.93;;;15.60;99.90;;;;;;5038275;28;20115;-77
2021/05/15 06:57:11;;;;;;;3.20;1.00;;;15.60;99.90;;;;;;5037572;28;20082;-78
2021/05/15 06:59:37;;;;;;;2.65;0.80;;;15.50;99.90;;;;;;5037453;28;20389;-78
2021/05/15 07:02:03;;;;;;;1.30;1.13;;;15.40;99.90;;;;;;5037267;28;20043;-78
2021/05/15 07:04:29;;;;;;;1.23;0.82;;;15.20;99.90;;;;;;5037448;28;20024;-78
2021/05/15 07:06:55;;;;;;;0.90;0.50;;;15.10;99.90;;;;;;5037484;28;20033;-77
2021/05/15 07:09:21;;;;;;;3.35;1.30;;;15.20;99.90;;;;;;5055075;28;20021;-78
2021/05/15 07:11:48;;;;;;;2.50;0.80;;;15.10;99.90;;;;;;5037622;28;20135;-78
2021/05/15 07:14:14;;;;;;;2.63;0.75;;;15.10;99.90;;;;;;5037391;28;20029;-78
2021/05/15 07:16:40;;;;;;;0.75;0.57;;;15.00;99.90;;;;;;5037243;28;20028;-78
2021/05/15 07:19:06;;;;;;;1.35;0.63;;;15.30;99.90;;;;;;5037062;28;20040;-78
2021/05/15 07:21:31;;;;;;;0.70;0.70;;;15.30;99.90;;;;;;5036535;28;20303;-81
2021/05/15 07:23:57;;;;;;;2.10;0.70;;;15.50;99.90;;;;;;5036980;28;20033;-78
2021/05/15 07:26:23;;;;;;;1.90;0.93;;;15.80;99.90;;;;;;5037259;28;20104;-78
2021/05/15 07:28:48;;;;;;;1.58;0.73;;;15.70;99.90;;;;;;5054758;28;20032;-78
2021/05/15 07:31:14;;;;;;;2.58;0.80;;;15.80;99.90;;;;;;5037030;28;20021;-78
2021/05/15 07:33:40;;;;;;;0.90;0.60;;;16.00;99.90;;;;;;5037205;28;20024;-78
2021/05/15 07:36:05;;;;;;;1.20;0.70;;;16.10;99.90;;;;;;5055343;28;20040;-78
2021/05/15 07:38:31;;;;;;;1.08;0.68;;;16.10;99.90;;;;;;5036831;28;20040;-79
2021/05/15 07:40:57;;;;;;;2.70;0.60;;;16.00;99.90;;;;;;5036463;28;20078;-78
2021/05/15 07:43:24;;;;;;;6.32;0.77;;;16.50;99.90;;;;;;5036592;28;20085;-78
2021/05/15 07:45:54;;;;;;;1.85;0.75;;;16.60;99.50;;;;;;5055020;28;20124;-80
2021/05/15 07:48:28;;;;;;;1.08;0.52;;;16.80;99.90;;;;;;5037692;28;20533;-78
2021/05/15 07:50:58;;;;;;;2.53;0.70;;;16.80;99.90;;;;;;5037317;28;20544;-77
2021/05/15 07:53:24;;;;;;;1.15;0.40;;;17.10;99.50;;;;;;5042183;28;20598;-78
2021/05/15 07:55:51;;;;;;;1.58;0.30;;;17.10;97.80;;;;;;5094994;28;20024;-78
2021/05/15 07:58:17;;;;;;;1.33;0.52;;;17.10;98.00;;;;;;5093774;28;20121;-85
2021/05/15 08:00:43;;;;;;;1.55;0.28;;;17.10;97.30;;;;;;5095451;28;20482;-83
2021/05/15 08:03:09;;;;;;;1.35;0.40;;;16.90;97.10;;;;;;5076881;28;20051;-78
2021/05/15 08:05:34;;;;;;;0.70;0.30;;;16.90;97.20;;;;;;5094870;28;20105;-88
2021/05/15 08:08:02;;;;;;;1.98;0.47;;;16.90;97.60;;;;;;5077110;28;20024;-79
2021/05/15 08:10:29;;;;;;;1.98;0.55;;;17.10;97.90;;;;;;5077238;28;20027;-79
2021/05/15 08:12:55;;;;;;;2.05;0.55;;;17.10;99.10;;;;;;5095233;28;20066;-78
2021/05/15 08:15:21;;;;;;;4.85;0.80;;;17.20;99.40;;;;;;5094109;28;20023;-77
2021/05/15 08:17:46;;;;;;;5.75;1.00;;;17.00;99.90;;;;;;5076929;28;20032;-84
2021/05/15 08:20:12;;;;;;;2.72;0.60;;;17.10;99.90;;;;;;5094776;28;20076;-88
2021/05/15 08:22:38;;;;;;;2.00;0.50;;;17.20;99.90;;;;;;5094857;28;20035;-79
2021/05/15 08:25:06;;;;;;;1.90;0.80;;;17.30;99.40;;;;;;5094854;28;20032;-82
2021/05/15 08:27:34;;;;;;;0.90;0.60;;;17.70;99.30;;;;;;5093852;28;20028;-78
2021/05/15 08:30:00;;;;;;;1.38;0.50;;;18.00;97.90;;;;;;5075665;28;20024;-78
2021/05/15 08:32:26;;;;;;;1.92;0.70;;;18.20;97.50;;;;;;5076438;28;20060;-88
2021/05/15 08:34:52;;;;;;;2.50;0.77;;;18.60;97.50;;;;;;5076534;28;20016;-80
2021/05/15 08:37:17;;;;;;;2.17;0.70;;;18.80;95.30;;;;;;5076629;28;20081;-79
2021/05/15 08:39:43;;;;;;;0.60;0.50;;;18.90;95.50;;;;;;5098376;28;20028;-79
2021/05/15 08:42:09;;;;;;;2.08;0.45;;;18.90;94.90;;;;;;5098381;28;20064;-90
2021/05/15 08:44:37;;;;;;;1.90;0.70;;;19.00;96.00;;;;;;5077537;28;20120;-90
2021/05/15 08:47:04;;;;;;;1.40;0.70;;;19.10;96.20;;;;;;5094170;28;20387;-79
2021/05/15 08:49:33;;;;;;;2.15;0.60;;;19.10;95.40;;;;;;5093718;28;20467;-79
2021/05/15 08:51:59;;;;;;;1.80;0.70;;;19.00;95.60;;;;;;5093801;28;20475;-79
2021/05/15 08:54:26;;;;;;;0.88;0.80;;;19.00;95.20;;;;;;5094105;28;20380;-84
2021/05/15 08:56:51;;;;;;;1.60;0.90;;;18.90;94.70;;;;;;5094056;28;20016;-87
2021/05/15 08:59:17;;;;;;;2.80;0.80;;;19.00;95.50;;;;;;5076466;28;20039;-82
2021/05/15 09:01:44;;;;;;;1.00;0.70;;;19.00;95.40;;;;;;5095112;28;20028;-83
2021/05/15 09:04:11;;;;;;;2.65;0.70;;;19.00;94.60;;;;;;5092805;28;20024;-80
2021/05/15 09:06:41;;;;;;;3.90;0.90;;;18.80;94.40;;;;;;5065447;28;20499;-82
2021/05/15 09:09:07;;;;;;;1.35;0.77;;;18.80;96.10;;;;;;5073879;28;20111;-85
2021/05/15 09:11:33;;;;;;;2.03;0.77;;;19.00;95.10;;;;;;5074472;28;20096;-81
2021/05/15 09:14:00;;;;;;;3.55;0.70;;;19.10;94.70;;;;;;5057276;28;20038;-81
2021/05/15 09:16:27;;;;;;;1.30;0.55;;;19.10;94.80;;;;;;5056695;28;20077;-80
2021/05/15 09:18:53;;;;;;;3.05;0.80;;;19.20;94.40;;;;;;5056506;28;20128;-82
2021/05/15 09:21:21;;;;;;;4.32;1.13;;;19.20;94.40;;;;;;5046323;28;20048;-81
2021/05/15 09:23:49;;;;;;;2.70;0.60;;;19.20;94.90;;;;;;5036718;28;20448;-80
2021/05/15 09:26:24;;;;;;;5.25;0.63;;;19.20;94.40;;;;;;5036272;28;20025;-80
2021/05/15 09:28:55;;;;;;;16.73;1.40;;;19.10;94.40;;;;;;5035994;28;20028;-81
2021/05/15 09:31:30;;;;;;;1.23;0.50;;;19.00;94.70;;;;;;5036441;28;20029;-80
2021/05/15 09:33:57;;;;;;;9.52;0.88;;;19.00;94.20;;;;;;5036497;28;20353;-83
2021/05/15 09:36:27;;;;;;;2.25;0.60;;;19.00;94.90;;;;;;5035890;28;20032;-78
2021/05/15 09:39:16;;;;;;;1.40;0.50;;;18.90;94.80;;;;;;5034958;28;20041;-81
2021/05/15 09:41:58;;;;;;;0.73;0.30;;;18.80;94.00;;;;;;5037672;28;20693;-79
2021/05/15 09:44:26;;;;;;;4.03;0.70;;;18.60;93.80;;;;;;5041736;28;20545;-82
2021/05/15 09:46:54;;;;;;;7.68;0.98;;;18.60;92.70;;;;;;5054718;28;20058;-80
2021/05/15 09:49:25;;;;;;;2.22;0.90;;;18.50;94.50;;;;;;5056059;28;20024;-81
2021/05/15 09:51:51;;;;;;;11.70;1.05;;;18.60;96.30;;;;;;5056384;28;20098;-81
2021/05/15 09:54:19;;;;;;;11.90;0.77;;;18.40;96.90;;;;;;5055970;28;20488;-81
2021/05/15 09:57:18;;;;;;;1.63;0.47;;;18.30;96.40;;;;;;5072906;28;20055;-81
2021/05/15 09:59:49;;;;;;;1.98;0.88;;;18.10;98.50;;;;;;5041313;28;20123;-82
2021/05/15 10:02:18;;;;;;;3.25;1.20;;;17.90;98.20;;;;;;5056070;28;20020;-83
2021/05/15 10:04:45;;;;;;;1.50;0.70;;;17.40;98.70;;;;;;5053505;28;20025;-80
2021/05/15 10:07:21;;;;;;;1.55;0.80;;;17.20;99.90;;;;;;5053233;28;20051;-79
2021/05/15 10:09:47;;;;;;;;;;;17.00;99.90;;;;;;5054198;28;20028;-81
2021/05/15 10:12:12;;;;;;;4.38;0.95;;;17.00;99.90;;;;;;5072455;28;19911;-79
2021/05/15 10:14:38;;;;;;;3.60;0.88;;;16.90;99.90;;;;;;5071847;28;20024;-81
2021/05/15 10:17:05;;;;;;;2.80;0.80;;;16.90;99.90;;;;;;5054404;28;20021;-81
2021/05/15 10:19:30;;;;;;;1.90;0.85;;;16.90;99.90;;;;;;5053892;28;20033;-81
2021/05/15 10:21:57;;;;;;;2.58;1.40;;;16.90;99.90;;;;;;5054389;28;20047;-78
2021/05/15 10:24:32;;;;;;;3.97;1.50;;;16.90;99.90;;;;;;5054537;28;20119;-79
2021/05/15 10:27:03;;;;;;;1.20;0.73;;;16.90;99.90;;;;;;5054728;28;20033;-79
2021/05/15 10:29:39;;;;;;;3.03;1.23;;;16.90;99.90;;;;;;5054465;28;20025;-80
2021/05/15 10:32:13;;;;;;;2.70;1.05;;;16.90;99.90;;;;;;5054395;28;20491;-79
2021/05/15 10:34:39;;;;;;;4.93;1.35;;;16.60;99.90;;;;;;5055240;28;20031;-81
2021/05/15 10:37:18;;;;;;;10.25;1.50;;;16.50;99.90;;;;;;5040567;28;20029;-79
2021/05/15 10:39:44;;;;;;;4.18;0.88;;;16.30;99.90;;;;;;5035705;28;20484;-83
2021/05/15 10:42:11;;;;;;;4.38;1.15;;;16.30;99.90;;;;;;5035303;28;20029;-83
2021/05/15 10:44:47;;;;;;;2.35;0.80;;;16.40;99.90;;;;;;5042748;28;20511;-81
2021/05/15 10:47:13;;;;;;;1.50;0.70;;;16.50;99.90;;;;;;5060821;28;20495;-81
2021/05/15 10:49:39;;;;;;;4.60;1.20;;;16.40;99.90;;;;;;5054109;28;20029;-81
2021/05/15 10:52:16;;;;;;;1.58;1.13;;;16.30;99.90;;;;;;5054403;28;20430;-84
2021/05/15 10:54:44;;;;;;;2.58;1.75;;;16.40;99.90;;;;;;5055597;28;20045;-84
2021/05/15 10:57:12;;;;;;;3.10;1.50;;;16.50;99.90;;;;;;5055651;28;20111;-83
2021/05/15 10:59:40;;;;;;;3.45;1.40;;;16.60;99.90;;;;;;5055194;28;20502;-85
2021/05/15 11:02:11;;;;;;;3.10;1.42;;;16.70;99.90;;;;;;5055377;28;20021;-85
2021/05/15 11:04:51;;;;;;;3.53;1.40;;;16.80;99.90;;;;;;5055095;28;20028;-87
2021/05/15 11:07:31;;;;;;;1.95;1.35;;;16.80;99.90;;;;;;5073188;28;20023;-85
2021/05/15 11:10:01;;;;;;;2.67;1.60;;;16.80;99.90;;;;;;5053245;28;20070;-86
2021/05/15 11:12:30;;;;;;;3.88;1.63;;;16.70;99.90;;;;;;5055251;28;20051;-83
2021/05/15 11:15:05;;;;;;;1.98;1.27;;;16.80;99.90;;;;;;5055015;28;20590;-82
2021/05/15 11:17:31;;;;;;;3.50;1.55;;;16.90;99.90;;;;;;5055542;28;20034;-81
2021/05/15 11:20:14;;;;;;;2.40;1.40;;;17.00;99.90;;;;;;5058060;28;20063;-81
2021/05/15 11:22:48;;;;;;;3.72;1.70;;;17.00;99.90;;;;;;5057358;28;20039;-80
2021/05/15 11:25:14;;;;;;;1.95;1.25;;;17.20;99.90;;;;;;5057323;28;20046;-78
2021/05/15 11:27:47;;;;;;;2.28;1.30;;;17.30;99.90;;;;;;5057442;28;20032;-80
2021/05/15 11:30:17;;;;;;;1.83;1.27;;;17.40;99.90;;;;;;5057692;28;20048;-82
2021/05/15 11:33:01;;;;;;;1.77;1.25;;;17.50;99.90;;;;;;5075472;28;20025;-78
2021/05/15 11:35:27;;;;;;;2.55;1.20;;;17.50;99.90;;;;;;5057198;28;20028;-78
2021/05/15 11:38:03;;;;;;;1.67;1.13;;;17.80;99.90;;;;;;5057352;28;20060;-78
2021/05/15 11:40:28;;;;;;;1.05;0.95;;;18.00;99.90;;;;;;5075572;28;20044;-80
2021/05/15 11:42:57;;;;;;;1.50;0.63;;;18.30;99.90;;;;;;5075017;28;20036;-78
2021/05/15 11:45:27;;;;;;;2.92;0.65;;;18.50;99.90;;;;;;5057588;28;20035;-79
2021/05/15 11:48:09;;;;;;;1.40;0.50;;;18.60;99.90;;;;;;5084229;28;20020;-78
2021/05/15 11:50:35;;;;;;;0.63;0.40;;;18.70;99.40;;;;;;5095384;28;20066;-83
2021/05/15 11:53:03;;;;;;;0.90;0.50;;;18.80;98.30;;;;;;5077181;28;20083;-80
2021/05/15 11:55:31;;;;;;;0.90;0.30;;;19.00;99.60;;;;;;5094054;28;20028;-79
2021/05/15 11:57:57;;;;;;;1.05;0.40;;;18.80;97.60;;;;;;5093801;28;20016;-81
2021/05/15 12:00:27;;;;;;;1.63;0.13;;;19.00;95.50;;;;;;5077241;28;20127;-79
2021/05/15 12:02:53;;;;;;;4.03;0.30;;;19.00;94.10;;;;;;5095326;28;20031;-77
2021/05/15 12:05:20;;;;;;;1.95;0.30;;;19.30;95.50;;;;;;5076691;28;20403;-82
2021/05/15 12:07:51;;;;;;;0.95;0.30;;;19.50;94.80;;;;;;5094401;28;20426;-78
2021/05/15 12:10:20;;;;;;;1.88;0.20;;;19.40;93.30;;;;;;5094688;28;20490;-81
2021/05/15 12:13:00;;;;;;;0.63;0.20;;;19.40;92.60;;;;;;5078102;28;20050;-77
2021/05/15 12:15:27;;;;;;;1.83;0.13;;;19.10;92.40;;;;;;5095605;28;20418;-79
2021/05/15 12:17:53;;;;;;;0.73;0.20;;;19.10;94.10;;;;;;5077155;28;20085;-80
2021/05/15 12:20:31;;;;;;;3.67;0.40;;;19.10;95.30;;;;;;5094787;28;20052;-82
2021/05/15 12:23:07;;;;;;;1.85;0.20;;;19.10;94.40;;;;;;5094811;28;20028;-81
2021/05/15 12:25:33;;;;;;;2.72;0.30;;;19.00;93.00;;;;;;5094000;28;20031;-81
2021/05/15 12:27:59;;;;;;;0.95;0.30;;;18.70;93.70;;;;;;5077456;28;20098;-83
2021/05/15 12:30:26;;;;;;;1.20;0.30;;;18.70;94.90;;;;;;5077815;28;20042;-81
2021/05/15 12:33:07;;;;;;;1.27;0.40;;;18.60;95.20;;;;;;5095519;28;20020;-83
2021/05/15 12:35:34;;;;;;;0.75;0.52;;;18.80;95.40;;;;;;5077829;28;20471;-82
2021/05/15 12:38:00;;;;;;;1.73;0.30;;;18.90;94.70;;;;;;5077558;28;20040;-83
2021/05/15 12:40:30;;;;;;;0.88;0.30;;;19.20;94.50;;;;;;5094404;28;20506;-83
2021/05/15 12:43:09;;;;;;;6.68;0.52;;;19.20;94.40;;;;;;5094379;28;20032;-82
2021/05/15 12:45:37;;;;;;;3.25;0.40;;;19.30;95.40;;;;;;5095613;28;20023;-82
2021/05/15 12:48:03;;;;;;;0.75;0.20;;;19.50;95.00;;;;;;5094218;28;20458;-83
2021/05/15 12:50:30;;;;;;;0.80;0.20;;;19.60;93.70;;;;;;5094423;28;20024;-83
2021/05/15 12:53:05;;;;;;;1.65;0.40;;;19.50;93.50;;;;;;5077680;28;20057;-82